sensor_id;sensor_type;location;lat;lon;timestamp;pressure;altitude;pressure_sealevel;temperature;humidity
46095;BME280;31832;50.746;-2.716;2023-09-30T00:00:14;162797.85;;;15.04;100.00
46095;BME280;31832;50.746;-2.716;2023-09-30T00:02:40;162422.75;;;12.74;100.00
46095;BME280;31832;50.746;-2.716;2023-09-30T00:05:05;162260.43;;;12.09;100.00
46095;BME280;31832;50.746;-2.716;2023-09-30T00:07:30;162486.91;;;13.33;100.00
46095;BME280;31832;50.746;-2.716;2023-09-30T00:09:55;162263.68;;;12.10;100.00
46095;BME280;31832;50.746;-2.716;2023-09-30T00:12:20;162032.15;;;10.83;100.00
46095;BME280;31832;50.746;-2.716;2023-09-30T00:14:46;162192.21;;;12.19;100.00
46095;BME280;31832;50.746;-2.716;2023-09-30T00:17:11;162351.09;;;12.58;100.00
46095;BME280;31832;50.746;-2.716;2023-09-30T00:19:36;161813.43;;;10.11;100.00
46095;BME280;31832;50.746;-2.716;2023-09-30T00:22:01;161506.42;;;8.89;100.00
46095;BME280;31832;50.746;-2.716;2023-09-30T00:24:27;161809.43;;;10.56;100.00
46095;BME280;31832;50.746;-2.716;2023-09-30T00:26:52;161842.34;;;10.74;100.00
46095;BME280;31832;50.746;-2.716;2023-09-30T00:29:17;161690.66;;;9.91;100.00
46095;BME280;31832;50.746;-2.716;2023-09-30T00:31:42;161805.02;;;10.30;100.00
46095;BME280;31832;50.746;-2.716;2023-09-30T00:34:07;161797.02;;;10.02;100.00
46095;BME280;31832;50.746;-2.716;2023-09-30T00:36:33;161876.74;;;10.45;100.00
46095;BME280;31832;50.746;-2.716;2023-09-30T00:38:58;161593.25;;;9.37;100.00
46095;BME280;31832;50.746;-2.716;2023-09-30T00:41:23;161503.10;;;9.35;100.00
46095;BME280;31832;50.746;-2.716;2023-09-30T00:43:48;161622.55;;;9.53;100.00
46095;BME280;31832;50.746;-2.716;2023-09-30T00:46:21;161724.48;;;9.86;100.00
46095;BME280;31832;50.746;-2.716;2023-09-30T00:48:39;161638.87;;;9.62;100.00
46095;BME280;31832;50.746;-2.716;2023-09-30T00:51:04;161887.91;;;10.99;100.00
46095;BME280;31832;50.746;-2.716;2023-09-30T00:53:29;161879.58;;;10.71;100.00
46095;BME280;31832;50.746;-2.716;2023-09-30T00:55:55;161922.15;;;10.94;100.00
46095;BME280;31832;50.746;-2.716;2023-09-30T00:58:20;161933.07;;;10.76;100.00
46095;BME280;31832;50.746;-2.716;2023-09-30T01:00:45;161820.18;;;10.62;100.00
46095;BME280;31832;50.746;-2.716;2023-09-30T01:03:11;161566.69;;;9.23;100.00
46095;BME280;31832;50.746;-2.716;2023-09-30T01:05:35;161707.40;;;10.00;100.00
46095;BME280;31832;50.746;-2.716;2023-09-30T01:08:03;161760.29;;;10.29;100.00
46095;BME280;31832;50.746;-2.716;2023-09-30T01:10:26;161885.07;;;10.74;100.00
46095;BME280;31832;50.746;-2.716;2023-09-30T01:12:51;161600.91;;;9.65;100.00
46095;BME280;31832;50.746;-2.716;2023-09-30T01:15:16;161696.08;;;9.94;100.00
46095;BME280;31832;50.746;-2.716;2023-09-30T01:17:42;161659.94;;;9.74;100.00
46095;BME280;31832;50.746;-2.716;2023-09-30T01:20:08;162073.83;;;11.78;100.00
46095;BME280;31832;50.746;-2.716;2023-09-30T01:22:33;162010.49;;;11.43;100.00
46095;BME280;31832;50.746;-2.716;2023-09-30T01:24:58;162535.31;;;13.84;100.00
46095;BME280;31832;50.746;-2.716;2023-09-30T01:27:24;162474.64;;;13.26;100.00
46095;BME280;31832;50.746;-2.716;2023-09-30T01:29:49;162270.10;;;12.14;100.00
46095;BME280;31832;50.746;-2.716;2023-09-30T01:32:14;161499.35;;;8.86;100.00
46095;BME280;31832;50.746;-2.716;2023-09-30T01:34:39;161991.90;;;11.33;100.00
46095;BME280;31832;50.746;-2.716;2023-09-30T01:37:05;161670.10;;;9.80;100.00
46095;BME280;31832;50.746;-2.716;2023-09-30T01:39:30;161516.33;;;8.95;100.00
46095;BME280;31832;50.746;-2.716;2023-09-30T01:41:55;161336.33;;;8.44;100.00
46095;BME280;31832;50.746;-2.716;2023-09-30T01:44:21;161429.86;;;8.95;100.00
46095;BME280;31832;50.746;-2.716;2023-09-30T01:46:45;161588.50;;;9.59;100.00
46095;BME280;31832;50.746;-2.716;2023-09-30T01:49:11;161480.54;;;8.99;100.00
46095;BME280;31832;50.746;-2.716;2023-09-30T01:51:36;161470.30;;;9.17;100.00
46095;BME280;31832;50.746;-2.716;2023-09-30T01:54:01;161533.23;;;9.04;100.00
46095;BME280;31832;50.746;-2.716;2023-09-30T01:56:26;161599.82;;;9.41;100.00
46095;BME280;31832;50.746;-2.716;2023-09-30T01:58:52;161678.59;;;10.08;100.00
46095;BME280;31832;50.746;-2.716;2023-09-30T02:01:17;161684.50;;;10.11;100.00
46095;BME280;31832;50.746;-2.716;2023-09-30T02:03:42;161429.36;;;8.71;100.00
46095;BME280;31832;50.746;-2.716;2023-09-30T02:06:08;161306.13;;;8.75;100.00
46095;BME280;31832;50.746;-2.716;2023-09-30T02:08:33;161324.77;;;8.37;100.00
46095;BME280;31832;50.746;-2.716;2023-09-30T02:10:58;161581.76;;;9.79;100.00
46095;BME280;31832;50.746;-2.716;2023-09-30T02:13:23;161626.38;;;9.79;100.00
46095;BME280;31832;50.746;-2.716;2023-09-30T02:15:48;161488.36;;;9.27;100.00
46095;BME280;31832;50.746;-2.716;2023-09-30T02:18:14;161460.15;;;9.12;100.00
46095;BME280;31832;50.746;-2.716;2023-09-30T02:20:40;161647.86;;;9.67;100.00
46095;BME280;31832;50.746;-2.716;2023-09-30T02:23:04;161298.40;;;8.47;100.00
46095;BME280;31832;50.746;-2.716;2023-09-30T02:25:29;161360.29;;;8.81;100.00
46095;BME280;31832;50.746;-2.716;2023-09-30T02:27:55;161737.80;;;10.41;100.00
46095;BME280;31832;50.746;-2.716;2023-09-30T02:30:20;162022.90;;;11.74;100.00
46095;BME280;31832;50.746;-2.716;2023-09-30T02:32:46;161783.19;;;10.42;100.00
46095;BME280;31832;50.746;-2.716;2023-09-30T02:35:11;161733.72;;;10.15;100.00
46095;BME280;31832;50.746;-2.716;2023-09-30T02:37:37;161645.12;;;9.66;100.00
46095;BME280;31832;50.746;-2.716;2023-09-30T02:40:02;161464.81;;;9.14;100.00
46095;BME280;31832;50.746;-2.716;2023-09-30T02:42:27;161455.66;;;9.33;100.00
46095;BME280;31832;50.746;-2.716;2023-09-30T02:44:52;161880.99;;;10.96;100.00
46095;BME280;31832;50.746;-2.716;2023-09-30T02:47:17;161963.57;;;11.17;100.00
46095;BME280;31832;50.746;-2.716;2023-09-30T02:49:42;162089.00;;;11.62;100.00
46095;BME280;31832;50.746;-2.716;2023-09-30T02:52:07;162642.48;;;14.66;100.00
46095;BME280;31832;50.746;-2.716;2023-09-30T02:54:33;162515.03;;;13.49;100.00
46095;BME280;31832;50.746;-2.716;2023-09-30T02:56:58;162948.44;;;15.87;100.00
46095;BME280;31832;50.746;-2.716;2023-09-30T02:59:23;163049.20;;;15.94;100.00
46095;BME280;31832;50.746;-2.716;2023-09-30T03:01:48;163010.01;;;15.73;100.00
46095;BME280;31832;50.746;-2.716;2023-09-30T03:04:14;162989.38;;;15.61;100.00
46095;BME280;31832;50.746;-2.716;2023-09-30T03:06:39;163039.59;;;15.89;100.00
46095;BME280;31832;50.746;-2.716;2023-09-30T03:09:04;162714.10;;;14.10;100.00
46095;BME280;31832;50.746;-2.716;2023-09-30T03:11:29;163073.43;;;16.07;100.00
46095;BME280;31832;50.746;-2.716;2023-09-30T03:13:54;163193.95;;;16.49;100.00
46095;BME280;31832;50.746;-2.716;2023-09-30T03:16:19;162889.39;;;14.82;100.00
46095;BME280;31832;50.746;-2.716;2023-09-30T03:18:45;162678.21;;;14.14;100.00
46095;BME280;31832;50.746;-2.716;2023-09-30T03:21:14;162415.49;;;12.70;100.00
46095;BME280;31832;50.746;-2.716;2023-09-30T03:23:35;162291.37;;;12.02;100.00
46095;BME280;31832;50.746;-2.716;2023-09-30T03:26:01;162377.28;;;12.49;100.00
46095;BME280;31832;50.746;-2.716;2023-09-30T03:28:26;162377.61;;;12.73;100.00
46095;BME280;31832;50.746;-2.716;2023-09-30T03:30:51;162219.23;;;11.86;100.00
46095;BME280;31832;50.746;-2.716;2023-09-30T03:33:16;161812.26;;;10.10;100.00
46095;BME280;31832;50.746;-2.716;2023-09-30T03:35:41;162403.73;;;13.11;100.00
46095;BME280;31832;50.746;-2.716;2023-09-30T03:38:06;161754.12;;;10.02;100.00
46095;BME280;31832;50.746;-2.716;2023-09-30T03:40:32;161706.57;;;10.00;100.00
46095;BME280;31832;50.746;-2.716;2023-09-30T03:42:57;161563.94;;;9.21;100.00
46095;BME280;31832;50.746;-2.716;2023-09-30T03:45:22;161467.06;;;8.92;100.00
46095;BME280;31832;50.746;-2.716;2023-09-30T03:47:48;161777.20;;;10.86;100.00
46095;BME280;31832;50.746;-2.716;2023-09-30T03:50:13;162308.46;;;12.83;100.00
46095;BME280;31832;50.746;-2.716;2023-09-30T03:52:38;162150.69;;;11.48;100.00
46095;BME280;31832;50.746;-2.716;2023-09-30T03:55:03;162337.74;;;12.99;100.00
46095;BME280;31832;50.746;-2.716;2023-09-30T03:57:29;162771.21;;;14.89;100.00
46095;BME280;31832;50.746;-2.716;2023-09-30T03:59:54;162986.29;;;15.83;100.00
46095;BME280;31832;50.746;-2.716;2023-09-30T04:02:19;162945.10;;;15.61;100.00
46095;BME280;31832;50.746;-2.716;2023-09-30T04:04:44;163182.08;;;16.67;100.00
46095;BME280;31832;50.746;-2.716;2023-09-30T04:07:09;162923.97;;;15.49;100.00
46095;BME280;31832;50.746;-2.716;2023-09-30T04:09:35;162634.46;;;13.66;100.00
46095;BME280;31832;50.746;-2.716;2023-09-30T04:12:00;162777.06;;;14.45;100.00
46095;BME280;31832;50.746;-2.716;2023-09-30T04:14:25;163179.24;;;16.41;100.00
46095;BME280;31832;50.746;-2.716;2023-09-30T04:16:51;162691.56;;;13.98;100.00
46095;BME280;31832;50.746;-2.716;2023-09-30T04:19:16;162577.12;;;13.35;100.00
46095;BME280;31832;50.746;-2.716;2023-09-30T04:21:41;162557.17;;;13.48;100.00
46095;BME280;31832;50.746;-2.716;2023-09-30T04:24:06;162831.67;;;14.75;100.00
46095;BME280;31832;50.746;-2.716;2023-09-30T04:26:31;162377.61;;;12.49;100.00
46095;BME280;31832;50.746;-2.716;2023-09-30T04:28:57;161859.91;;;10.12;100.00
46095;BME280;31832;50.746;-2.716;2023-09-30T04:31:22;161865.25;;;10.39;100.00
46095;BME280;31832;50.746;-2.716;2023-09-30T04:33:47;161618.89;;;9.51;100.00
46095;BME280;31832;50.746;-2.716;2023-09-30T04:36:12;161657.52;;;9.73;100.00
46095;BME280;31832;50.746;-2.716;2023-09-30T04:38:37;161815.68;;;10.60;100.00
46095;BME280;31832;50.746;-2.716;2023-09-30T04:41:02;162407.56;;;13.37;100.00
46095;BME280;31832;50.746;-2.716;2023-09-30T04:43:28;162752.18;;;15.03;100.00
46095;BME280;31832;50.746;-2.716;2023-09-30T04:45:54;162333.74;;;12.73;100.00
46095;BME280;31832;50.746;-2.716;2023-09-30T04:48:19;162858.15;;;15.13;100.00
46095;BME280;31832;50.746;-2.716;2023-09-30T04:50:44;162659.09;;;14.04;100.00
46095;BME280;31832;50.746;-2.716;2023-09-30T04:53:09;162172.87;;;11.61;100.00
46095;BME280;31832;50.746;-2.716;2023-09-30T04:55:34;161944.65;;;10.83;100.00
46095;BME280;31832;50.746;-2.716;2023-09-30T04:57:59;161934.32;;;10.77;100.00
46095;BME280;31832;50.746;-2.716;2023-09-30T05:00:25;161681.84;;;9.86;100.00
46095;BME280;31832;50.746;-2.716;2023-09-30T05:02:51;161752.21;;;10.01;100.00
46095;BME280;31832;50.746;-2.716;2023-09-30T05:05:15;161398.07;;;8.78;100.00
46095;BME280;31832;50.746;-2.716;2023-09-30T05:07:41;161229.11;;;8.32;100.00
46095;BME280;31832;50.746;-2.716;2023-09-30T05:10:06;161326.18;;;8.62;100.00
46095;BME280;31832;50.746;-2.716;2023-09-30T05:12:31;161409.39;;;8.84;100.00
46095;BME280;31832;50.746;-2.716;2023-09-30T05:14:56;161539.30;;;9.55;100.00
46095;BME280;31832;50.746;-2.716;2023-09-30T05:17:21;161981.32;;;11.51;100.00
46095;BME280;31832;50.746;-2.716;2023-09-30T05:19:46;162418.16;;;13.67;100.00
46095;BME280;31832;50.746;-2.716;2023-09-30T05:22:12;162636.47;;;14.39;100.00
46095;BME280;31832;50.746;-2.716;2023-09-30T05:24:37;162494.42;;;13.37;100.00
46095;BME280;31832;50.746;-2.716;2023-09-30T05:27:02;162771.38;;;14.89;100.00
46095;BME280;31832;50.746;-2.716;2023-09-30T05:29:28;162905.42;;;15.63;100.00
46095;BME280;31832;50.746;-2.716;2023-09-30T05:31:53;163003.50;;;15.93;100.00
46095;BME280;31832;50.746;-2.716;2023-09-30T05:34:18;162901.00;;;15.37;100.00
46095;BME280;31832;50.746;-2.716;2023-09-30T05:36:44;163089.39;;;16.40;100.00
46095;BME280;31832;50.746;-2.716;2023-09-30T05:39:09;163129.59;;;16.38;100.00
46095;BME280;31832;50.746;-2.716;2023-09-30T05:41:34;163040.01;;;16.13;100.00
46095;BME280;31832;50.746;-2.716;2023-09-30T05:43:59;163077.78;;;16.34;100.00
46095;BME280;31832;50.746;-2.716;2023-09-30T05:46:24;162951.28;;;15.64;100.00
46095;BME280;31832;50.746;-2.716;2023-09-30T05:48:50;163067.58;;;16.28;100.00
46095;BME280;31832;50.746;-2.716;2023-09-30T05:51:15;162718.95;;;14.13;100.00
46095;BME280;31832;50.746;-2.716;2023-09-30T05:53:40;162572.61;;;13.80;100.00
46095;BME280;31832;50.746;-2.716;2023-09-30T05:56:05;162340.74;;;12.53;100.00
46095;BME280;31832;50.746;-2.716;2023-09-30T05:58:30;161877.66;;;10.46;100.00
46095;BME280;31832;50.746;-2.716;2023-09-30T06:00:56;162155.61;;;11.99;100.00
46095;BME280;31832;50.746;-2.716;2023-09-30T06:03:21;161747.71;;;9.74;100.00
46095;BME280;31832;50.746;-2.716;2023-09-30T06:05:46;162056.91;;;11.21;100.00
46095;BME280;31832;50.746;-2.716;2023-09-30T06:08:11;162097.50;;;11.67;100.00
46095;BME280;31832;50.746;-2.716;2023-09-30T06:10:37;162342.75;;;12.78;100.00
46095;BME280;31832;50.746;-2.716;2023-09-30T06:13:02;162674.95;;;14.36;100.00
46095;BME280;31832;50.746;-2.716;2023-09-30T06:15:27;162620.52;;;14.07;100.00
46095;BME280;31832;50.746;-2.716;2023-09-30T06:17:53;162760.53;;;14.83;100.00
46095;BME280;31832;50.746;-2.716;2023-09-30T06:20:18;162541.57;;;13.63;100.00
46095;BME280;31832;50.746;-2.716;2023-09-30T06:22:43;162535.39;;;13.60;100.00
46095;BME280;31832;50.746;-2.716;2023-09-30T06:25:08;162639.30;;;14.17;100.00
46095;BME280;31832;50.746;-2.716;2023-09-30T06:27:33;162744.33;;;14.74;100.00
46095;BME280;31832;50.746;-2.716;2023-09-30T06:29:59;162768.71;;;14.40;100.00
46095;BME280;31832;50.746;-2.716;2023-09-30T06:32:24;162230.32;;;11.92;100.00
46095;BME280;31832;50.746;-2.716;2023-09-30T06:34:49;162641.31;;;14.18;100.00
46095;BME280;31832;50.746;-2.716;2023-09-30T06:37:15;163010.52;;;15.97;100.00
46095;BME280;31832;50.746;-2.716;2023-09-30T06:39:40;163025.14;;;15.81;100.00
46095;BME280;31832;50.746;-2.716;2023-09-30T06:42:05;163104.60;;;16.24;100.00
46095;BME280;31832;50.746;-2.716;2023-09-30T06:44:30;162887.63;;;15.05;100.00
46095;BME280;31832;50.746;-2.716;2023-09-30T06:46:55;163183.92;;;16.20;100.00
46095;BME280;31832;50.746;-2.716;2023-09-30T06:49:21;163053.21;;;15.96;100.00
46095;BME280;31832;50.746;-2.716;2023-09-30T06:51:46;163279.97;;;16.73;100.00
46095;BME280;31832;50.746;-2.716;2023-09-30T06:54:12;163277.29;;;16.71;100.00
46095;BME280;31832;50.746;-2.716;2023-09-30T06:56:37;162662.18;;;13.82;100.00
46095;BME280;31832;50.746;-2.716;2023-09-30T06:59:02;162512.36;;;13.23;100.00
46095;BME280;31832;50.746;-2.716;2023-09-30T07:01:27;162892.14;;;15.08;100.00
46095;BME280;31832;50.746;-2.716;2023-09-30T07:03:52;163191.10;;;16.48;100.00
46095;BME280;31832;50.746;-2.716;2023-09-30T07:06:22;163448.88;;;17.65;100.00
46095;BME280;31832;50.746;-2.716;2023-09-30T07:08:43;162754.93;;;13.85;100.00
46095;BME280;31832;50.746;-2.716;2023-09-30T07:11:08;163181.41;;;16.67;100.00
46095;BME280;31832;50.746;-2.716;2023-09-30T07:13:33;163294.60;;;16.81;100.00
46095;BME280;31832;50.746;-2.716;2023-09-30T07:15:58;162625.45;;;13.61;100.00
46095;BME280;31832;50.746;-2.716;2023-09-30T07:18:23;163346.10;;;17.09;100.00
46095;BME280;31832;50.746;-2.716;2023-09-30T07:20:49;162842.95;;;14.57;100.00
46095;BME280;31832;50.746;-2.716;2023-09-30T07:23:19;162495.42;;;13.14;100.00
46095;BME280;31832;50.746;-2.716;2023-09-30T07:25:39;162861.32;;;14.91;100.00
46095;BME280;31832;50.746;-2.716;2023-09-30T07:28:04;163025.55;;;15.81;100.00
46095;BME280;31832;50.746;-2.716;2023-09-30T07:30:29;162252.59;;;12.04;100.00
46095;BME280;31832;50.746;-2.716;2023-09-30T07:32:55;162717.44;;;14.36;100.00
46095;BME280;31832;50.746;-2.716;2023-09-30T07:35:20;162923.55;;;15.01;100.00
46095;BME280;31832;50.746;-2.716;2023-09-30T07:37:45;163089.39;;;15.92;100.00
46095;BME280;31832;50.746;-2.716;2023-09-30T07:40:11;162705.17;;;13.81;100.00
46095;BME280;31832;50.746;-2.716;2023-09-30T07:42:35;162568.61;;;13.54;100.00
46095;BME280;31832;50.746;-2.716;2023-09-30T07:45:01;163245.44;;;16.54;100.00
46095;BME280;31832;50.746;-2.716;2023-09-30T07:47:26;162797.94;;;14.08;100.00
46095;BME280;31832;50.746;-2.716;2023-09-30T07:49:51;163484.76;;;17.61;100.00
46095;BME280;31832;50.746;-2.716;2023-09-30T07:52:16;163264.00;;;16.40;100.00
46095;BME280;31832;50.746;-2.716;2023-09-30T07:54:41;163298.11;;;16.83;100.00
46095;BME280;31832;50.746;-2.716;2023-09-30T07:57:06;163600.96;;;18.01;100.00
46095;BME280;31832;50.746;-2.716;2023-09-30T07:59:32;163747.56;;;18.81;100.00
46095;BME280;31832;50.746;-2.716;2023-09-30T08:01:57;163726.14;;;18.46;100.00
46095;BME280;31832;50.746;-2.716;2023-09-30T08:04:22;163641.45;;;18.23;100.00
46095;BME280;31832;50.746;-2.716;2023-09-30T08:06:48;163107.86;;;15.78;100.00
46095;BME280;31832;50.746;-2.716;2023-09-30T08:09:13;162715.11;;;14.11;100.00
46095;BME280;31832;50.746;-2.716;2023-09-30T08:11:37;162997.98;;;15.66;100.00
46095;BME280;31832;50.746;-2.716;2023-09-30T08:14:03;162777.06;;;14.21;100.00
46095;BME280;31832;50.746;-2.716;2023-09-30T08:16:28;163020.21;;;15.78;100.00
46095;BME280;31832;50.746;-2.716;2023-09-30T08:18:53;163045.52;;;15.92;100.00
46095;BME280;31832;50.746;-2.716;2023-09-30T08:21:18;162467.72;;;13.23;100.00
46095;BME280;31832;50.746;-2.716;2023-09-30T08:23:43;162829.34;;;14.97;100.00
46095;BME280;31832;50.746;-2.716;2023-09-30T08:26:08;162661.93;;;14.05;100.00
46095;BME280;31832;50.746;-2.716;2023-09-30T08:28:34;162772.88;;;14.42;100.00
46095;BME280;31832;50.746;-2.716;2023-09-30T08:31:03;162774.64;;;14.67;100.00
46095;BME280;31832;50.746;-2.716;2023-09-30T08:33:25;162919.37;;;15.47;100.00
46095;BME280;31832;50.746;-2.716;2023-09-30T08:35:49;162912.27;;;14.71;100.00
46095;BME280;31832;50.746;-2.716;2023-09-30T08:38:14;162930.90;;;14.81;100.00
46095;BME280;31832;50.746;-2.716;2023-09-30T08:40:39;162700.75;;;14.27;100.00
46095;BME280;31832;50.746;-2.716;2023-09-30T08:43:04;162815.31;;;14.42;100.00
46095;BME280;31832;50.746;-2.716;2023-09-30T08:45:33;162616.10;;;14.04;100.00
46095;BME280;31832;50.746;-2.716;2023-09-30T08:47:55;162474.81;;;13.26;100.00
46095;BME280;31832;50.746;-2.716;2023-09-30T08:50:21;162686.05;;;14.19;100.00
46095;BME280;31832;50.746;-2.716;2023-09-30T08:52:45;162612.68;;;14.02;100.00
46095;BME280;31832;50.746;-2.716;2023-09-30T08:55:11;162572.78;;;13.80;100.00
46095;BME280;31832;50.746;-2.716;2023-09-30T08:57:38;162638.14;;;14.16;100.00
46095;BME280;31832;50.746;-2.716;2023-09-30T09:00:01;162946.19;;;15.37;100.00
46095;BME280;31832;50.746;-2.716;2023-09-30T09:02:27;162840.61;;;15.03;100.00
46095;BME280;31832;50.746;-2.716;2023-09-30T09:04:53;163280.55;;;16.73;100.00
46095;BME280;31832;50.746;-2.716;2023-09-30T09:07:18;163110.79;;;15.80;100.00
46095;BME280;31832;50.746;-2.716;2023-09-30T09:14:37;162809.79;;;14.63;100.00
46095;BME280;31832;50.746;-2.716;2023-09-30T09:16:59;162952.37;;;15.41;100.00
46095;BME280;31832;50.746;-2.716;2023-09-30T09:19:23;162931.57;;;15.06;100.00
46095;BME280;31832;50.746;-2.716;2023-09-30T09:21:55;163032.49;;;15.37;100.00
46095;BME280;31832;50.746;-2.716;2023-09-30T09:26:39;163071.68;;;16.06;100.00
46095;BME280;31832;50.746;-2.716;2023-09-30T09:29:04;162887.13;;;15.05;100.00
46095;BME280;31832;50.746;-2.716;2023-09-30T09:31:31;163020.46;;;15.78;100.00
46095;BME280;31832;50.746;-2.716;2023-09-30T09:33:55;162704.17;;;14.29;100.00
46095;BME280;31832;50.746;-2.716;2023-09-30T09:36:20;162999.40;;;15.67;100.00
46095;BME280;31832;50.746;-2.716;2023-09-30T09:38:46;162951.45;;;15.64;100.00
46095;BME280;31832;50.746;-2.716;2023-09-30T09:41:10;162842.11;;;14.80;100.00
46095;BME280;31832;50.746;-2.716;2023-09-30T09:43:36;162996.15;;;15.65;100.00
46095;BME280;31832;50.746;-2.716;2023-09-30T09:46:00;162872.18;;;14.97;100.00
46095;BME280;31832;50.746;-2.716;2023-09-30T09:48:25;162868.00;;;15.18;100.00
46095;BME280;31832;50.746;-2.716;2023-09-30T09:50:51;162792.01;;;14.77;100.00
46095;BME280;31832;50.746;-2.716;2023-09-30T09:53:16;162809.96;;;14.87;100.00
46095;BME280;31832;50.746;-2.716;2023-09-30T09:55:42;162747.08;;;14.76;100.00
46095;BME280;31832;50.746;-2.716;2023-09-30T09:58:07;163014.94;;;15.51;100.00
46095;BME280;31832;50.746;-2.716;2023-09-30T10:00:31;162873.52;;;15.22;100.00
46095;BME280;31832;50.746;-2.716;2023-09-30T10:02:56;162972.33;;;15.52;100.00
46095;BME280;31832;50.746;-2.716;2023-09-30T10:05:22;162785.74;;;14.49;100.00
46095;BME280;31832;50.746;-2.716;2023-09-30T10:07:51;162882.04;;;15.26;100.00
46095;BME280;31832;50.746;-2.716;2023-09-30T10:10:16;162833.26;;;14.99;100.00
46095;BME280;31832;50.746;-2.716;2023-09-30T10:12:38;162866.58;;;15.18;100.00
46095;BME280;31832;50.746;-2.716;2023-09-30T10:20:04;162979.77;;;15.56;100.00
46095;BME280;31832;50.746;-2.716;2023-09-30T10:22:23;163149.56;;;16.01;100.00
46095;BME280;31832;50.746;-2.716;2023-09-30T10:24:43;162857.90;;;14.89;100.00
46095;BME280;31832;50.746;-2.716;2023-09-30T10:29:39;163108.45;;;16.27;100.00
46095;BME280;31832;50.746;-2.716;2023-09-30T10:31:59;163097.08;;;16.20;100.00
46095;BME280;31832;50.746;-2.716;2023-09-30T10:34:24;163318.42;;;16.94;100.00
46095;BME280;31832;50.746;-2.716;2023-09-30T10:36:49;162937.92;;;15.33;100.00
46095;BME280;31832;50.746;-2.716;2023-09-30T10:39:14;162974.84;;;15.53;100.00
46095;BME280;31832;50.746;-2.716;2023-09-30T10:41:49;162895.48;;;15.10;100.00
46095;BME280;31832;50.746;-2.716;2023-09-30T10:46:30;162903.17;;;15.38;100.00
46095;BME280;31832;50.746;-2.716;2023-09-30T10:48:55;163043.94;;;16.15;100.00
46095;BME280;31832;50.746;-2.716;2023-09-30T10:51:21;163076.52;;;16.09;100.00
46095;BME280;31832;50.746;-2.716;2023-09-30T10:53:47;163058.81;;;15.99;100.00
46095;BME280;31832;50.746;-2.716;2023-09-30T10:56:10;162766.96;;;14.87;100.00
46095;BME280;31832;50.746;-2.716;2023-09-30T10:58:40;162932.24;;;15.54;100.00
46095;BME280;31832;50.746;-2.716;2023-09-30T11:01:01;162818.31;;;15.15;100.00
46095;BME280;31832;50.746;-2.716;2023-09-30T11:03:26;162853.14;;;15.10;100.00
46095;BME280;31832;50.746;-2.716;2023-09-30T11:05:52;162848.88;;;15.08;100.00
46095;BME280;31832;50.746;-2.716;2023-09-30T11:08:18;162709.26;;;14.79;100.00
46095;BME280;31832;50.746;-2.716;2023-09-30T11:10:47;162905.59;;;15.63;100.00
46095;BME280;31832;50.746;-2.716;2023-09-30T11:13:08;162826.00;;;14.95;100.00
46095;BME280;31832;50.746;-2.716;2023-09-30T11:15:33;162861.07;;;15.39;100.00
46095;BME280;31832;50.746;-2.716;2023-09-30T11:20:23;163080.54;;;15.87;100.00
46095;BME280;31832;50.746;-2.716;2023-09-30T11:22:49;163209.33;;;16.82;100.00
46095;BME280;31832;50.746;-2.716;2023-09-30T11:25:17;163079.62;;;16.35;100.00
46095;BME280;31832;50.746;-2.716;2023-09-30T11:27:39;162979.02;;;15.55;100.00
46095;BME280;31832;50.746;-2.716;2023-09-30T11:30:05;163142.88;;;16.21;100.00
46095;BME280;31832;50.746;-2.716;2023-09-30T11:32:30;162931.23;;;15.77;100.00
46095;BME280;31832;50.746;-2.716;2023-09-30T11:34:56;163094.99;;;16.43;100.00
46095;BME280;31832;50.746;-2.716;2023-09-30T11:37:31;162986.12;;;16.07;100.00
46095;BME280;31832;50.746;-2.716;2023-09-30T11:39:46;163147.48;;;16.48;100.00
46095;BME280;31832;50.746;-2.716;2023-09-30T11:42:15;163240.42;;;16.51;100.00
46095;BME280;31832;50.746;-2.716;2023-09-30T11:44:44;163137.11;;;16.42;100.00
46095;BME280;31832;50.746;-2.716;2023-09-30T11:47:03;163144.97;;;16.47;100.00
46095;BME280;31832;50.746;-2.716;2023-09-30T11:49:29;163030.40;;;15.84;100.00
46095;BME280;31832;50.746;-2.716;2023-09-30T11:51:53;162963.40;;;15.71;100.00
46095;BME280;31832;50.746;-2.716;2023-09-30T11:54:18;163093.24;;;16.18;100.00
46095;BME280;31832;50.746;-2.716;2023-09-30T11:56:43;163041.43;;;16.14;100.00
46095;BME280;31832;50.746;-2.716;2023-09-30T11:59:08;162936.91;;;15.56;100.00
46095;BME280;31832;50.746;-2.716;2023-09-30T12:01:33;162885.63;;;15.52;100.00
46095;BME280;31832;50.746;-2.716;2023-09-30T12:03:59;163169.79;;;16.60;100.00
46095;BME280;31832;50.746;-2.716;2023-09-30T12:06:24;163301.12;;;16.84;100.00
46095;BME280;31832;50.746;-2.716;2023-09-30T12:08:49;163261.82;;;16.63;100.00
46095;BME280;31832;50.746;-2.716;2023-09-30T12:11:14;162938.33;;;15.81;100.00
46095;BME280;31832;50.746;-2.716;2023-09-30T12:13:39;162990.05;;;15.62;100.00
46095;BME280;31832;50.746;-2.716;2023-09-30T12:16:04;163148.81;;;16.73;100.00
46095;BME280;31832;50.746;-2.716;2023-09-30T12:18:29;163469.70;;;17.53;100.00
46095;BME280;31832;50.746;-2.716;2023-09-30T12:20:54;163199.55;;;16.76;100.00
46095;BME280;31832;50.746;-2.716;2023-09-30T12:23:20;163209.49;;;16.58;100.00
46095;BME280;31832;50.746;-2.716;2023-09-30T12:25:45;163152.16;;;16.50;100.00
46095;BME280;31832;50.746;-2.716;2023-09-30T12:28:10;163153.91;;;16.51;100.00
46095;BME280;31832;50.746;-2.716;2023-09-30T12:30:35;163155.25;;;16.04;100.00
46095;BME280;31832;50.746;-2.716;2023-09-30T12:33:00;162891.14;;;15.31;100.00
46095;BME280;31832;50.746;-2.716;2023-09-30T12:35:25;162991.80;;;15.86;100.00
46095;BME280;31832;50.746;-2.716;2023-09-30T12:37:50;163097.08;;;16.20;100.00